createdAt,value
2022-09-21T00:01:13.437Z,2.70
2022-09-21T00:03:42.675Z,3.33
2022-09-21T00:06:12.518Z,2.77
2022-09-21T00:08:40.672Z,3.10
2022-09-21T00:11:13.875Z,2.77
2022-09-21T00:13:45.780Z,2.90
2022-09-21T00:16:13.902Z,2.63
2022-09-21T00:18:41.949Z,3.00
2022-09-21T00:21:10.779Z,2.90
2022-09-21T00:23:39.348Z,3.07
2022-09-21T00:26:10.471Z,2.80
2022-09-21T00:28:40.150Z,2.93
2022-09-21T00:31:12.181Z,2.40
2022-09-21T00:33:40.911Z,2.90
2022-09-21T00:36:10.908Z,2.63
2022-09-21T00:38:41.016Z,2.70
2022-09-21T00:41:11.866Z,2.97
2022-09-21T00:43:47.021Z,2.60
2022-09-21T00:46:19.365Z,3.20
2022-09-21T00:48:47.524Z,2.83
2022-09-21T00:51:16.005Z,2.73
2022-09-21T00:53:44.675Z,2.70
2022-09-21T00:56:15.472Z,2.70
2022-09-21T00:58:47.561Z,2.50
2022-09-21T01:01:16.448Z,2.80
2022-09-21T01:03:45.688Z,3.73
2022-09-21T01:06:14.545Z,2.60
2022-09-21T01:08:43.723Z,2.80
2022-09-21T01:11:35.144Z,3.10
2022-09-21T01:14:20.800Z,2.57
2022-09-21T01:17:02.379Z,2.80
2022-09-21T01:20:04.053Z,3.63
2022-09-21T01:22:45.931Z,2.83
2022-09-21T01:25:24.560Z,2.87
2022-09-21T01:28:07.816Z,3.03
2022-09-21T01:30:44.611Z,2.87
2022-09-21T01:33:20.259Z,3.70
2022-09-21T01:35:51.149Z,3.30
2022-09-21T01:38:24.031Z,2.80
2022-09-21T01:40:54.718Z,3.10
2022-09-21T01:43:27.241Z,2.67
2022-09-21T01:46:02.019Z,2.90
2022-09-21T01:48:35.129Z,3.00
2022-09-21T01:51:08.286Z,2.97
2022-09-21T01:53:41.423Z,2.63
2022-09-21T01:56:14.509Z,2.63
2022-09-21T01:58:46.898Z,3.10
2022-09-21T02:01:20.657Z,2.90
2022-09-21T02:03:52.502Z,2.93
2022-09-21T02:06:20.692Z,3.20
2022-09-21T02:08:49.072Z,3.03
2022-09-21T02:11:16.961Z,3.07
2022-09-21T02:13:46.980Z,3.00
2022-09-21T02:16:34.971Z,3.30
2022-09-21T02:19:15.351Z,3.20
2022-09-21T02:21:57.236Z,2.97
2022-09-21T02:24:36.556Z,3.70
2022-09-21T02:27:07.608Z,3.20
2022-09-21T02:29:45.571Z,3.50
2022-09-21T02:32:24.710Z,3.30
2022-09-21T02:34:56.703Z,3.50
2022-09-21T02:37:34.566Z,3.03
2022-09-21T02:40:08.551Z,3.23
2022-09-21T02:42:41.724Z,3.23
2022-09-21T02:45:14.681Z,2.90
2022-09-21T02:47:50.122Z,3.13
2022-09-21T02:50:23.954Z,3.10
2022-09-21T02:52:55.303Z,2.93
2022-09-21T02:55:23.834Z,3.07
2022-09-21T02:57:51.833Z,2.97
2022-09-21T03:00:20.537Z,3.63
2022-09-21T03:02:49.805Z,3.00
2022-09-21T03:05:17.708Z,2.87
2022-09-21T03:07:45.646Z,3.37
2022-09-21T03:10:13.530Z,3.50
2022-09-21T03:12:46.820Z,3.60
2022-09-21T03:15:16.539Z,3.33
2022-09-21T03:17:44.431Z,3.17
2022-09-21T03:20:14.111Z,3.40
2022-09-21T03:22:41.984Z,3.27
2022-09-21T03:25:13.138Z,3.20
2022-09-21T03:27:42.715Z,2.97
2022-09-21T03:30:11.644Z,3.07
2022-09-21T03:32:39.527Z,2.83
2022-09-21T03:35:08.314Z,2.80
2022-09-21T03:37:41.138Z,3.20
2022-09-21T03:40:11.410Z,3.00
2022-09-21T03:42:39.818Z,3.60
2022-09-21T03:45:09.941Z,3.17
2022-09-21T03:47:39.269Z,3.30
2022-09-21T03:50:10.203Z,3.33
2022-09-21T03:52:39.919Z,3.30
2022-09-21T03:55:10.215Z,3.03
2022-09-21T03:57:38.430Z,3.60
2022-09-21T04:00:08.715Z,2.80
2022-09-21T04:02:36.967Z,3.30
2022-09-21T04:05:06.883Z,3.27
2022-09-21T04:07:35.771Z,2.90
2022-09-21T04:10:06.555Z,3.30
2022-09-21T04:12:35.079Z,3.37
2022-09-21T04:15:04.163Z,3.37
2022-09-21T04:17:32.235Z,3.40
2022-09-21T04:20:00.162Z,3.50
2022-09-21T04:22:28.192Z,3.27
2022-09-21T04:24:56.170Z,3.10
2022-09-21T04:27:25.422Z,3.20
2022-09-21T04:29:53.603Z,3.30
2022-09-21T04:32:21.698Z,3.10
2022-09-21T04:34:49.892Z,3.37
2022-09-21T04:37:18.052Z,3.60
2022-09-21T04:39:45.933Z,3.53
2022-09-21T04:42:14.135Z,3.37
2022-09-21T04:44:43.400Z,3.53
2022-09-21T04:47:11.852Z,4.23
2022-09-21T04:49:40.067Z,3.70
2022-09-21T04:52:08.097Z,4.10
2022-09-21T04:54:36.054Z,4.00
2022-09-21T04:57:04.059Z,4.00
2022-09-21T04:59:32.048Z,3.57
2022-09-21T05:02:01.293Z,3.90
2022-09-21T05:04:29.830Z,4.20
2022-09-21T05:06:59.300Z,3.90
2022-09-21T05:09:44.753Z,4.13
2022-09-21T05:12:12.799Z,3.47
2022-09-21T05:14:41.035Z,3.90
2022-09-21T05:17:10.892Z,3.80
2022-09-21T05:19:38.858Z,4.57
2022-09-21T05:22:06.846Z,4.10
2022-09-21T05:24:35.162Z,3.90
2022-09-21T05:27:03.266Z,4.10
2022-09-21T05:29:31.765Z,4.50
2022-09-21T05:32:06.257Z,5.03
2022-09-21T05:34:46.527Z,5.03
2022-09-21T05:37:37.802Z,4.90
2022-09-21T05:40:07.631Z,4.27
2022-09-21T05:42:36.100Z,5.00
2022-09-21T05:45:05.119Z,4.40
2022-09-21T05:47:40.570Z,4.80
2022-09-21T05:50:26.251Z,4.87
2022-09-21T05:53:05.845Z,5.07
2022-09-21T05:55:41.898Z,5.63
2022-09-21T05:58:18.278Z,5.27
2022-09-21T06:00:54.984Z,6.10
2022-09-21T06:03:29.567Z,6.10
2022-09-21T06:05:59.551Z,5.70
2022-09-21T06:08:27.738Z,5.80
2022-09-21T06:10:56.327Z,5.10
2022-09-21T06:13:24.188Z,5.40
2022-09-21T06:15:52.103Z,5.67
2022-09-21T06:18:20.368Z,5.60
2022-09-21T06:20:48.876Z,5.60
2022-09-21T06:23:18.083Z,5.70
2022-09-21T06:25:46.330Z,6.60
2022-09-21T06:28:14.507Z,6.53
2022-09-21T06:30:44.903Z,8.30
2022-09-21T06:33:12.926Z,6.53
2022-09-21T06:35:44.428Z,6.33
2022-09-21T06:38:12.303Z,6.70
2022-09-21T06:40:41.584Z,6.30
2022-09-21T06:43:09.492Z,6.60
2022-09-21T06:45:38.395Z,7.00
2022-09-21T06:48:06.446Z,7.40
2022-09-21T06:50:34.782Z,6.93
2022-09-21T06:53:03.453Z,7.90
2022-09-21T06:55:32.441Z,6.57
2022-09-21T06:58:05.267Z,6.07
2022-09-21T07:00:34.014Z,6.03
2022-09-21T07:03:01.971Z,6.23
2022-09-21T07:05:29.930Z,6.50
2022-09-21T07:07:59.220Z,7.30
2022-09-21T07:10:27.864Z,6.93
2022-09-21T07:12:56.351Z,6.97
2022-09-21T07:15:29.001Z,6.67
2022-09-21T07:18:05.610Z,6.13
2022-09-21T07:20:33.892Z,7.73
2022-09-21T07:23:01.842Z,7.10
2022-09-21T07:25:29.736Z,6.67
2022-09-21T07:28:01.076Z,7.07
2022-09-21T07:30:30.453Z,6.33
2022-09-21T07:32:58.587Z,6.57
2022-09-21T07:35:26.742Z,7.20
2022-09-21T07:37:56.402Z,7.03
2022-09-21T07:40:25.331Z,6.70
2022-09-21T07:42:53.504Z,6.80
2022-09-21T07:45:21.465Z,7.37
2022-09-21T07:47:50.758Z,6.97
2022-09-21T07:50:18.713Z,8.80
2022-09-21T07:52:46.729Z,6.70
2022-09-21T07:55:15.047Z,6.10
2022-09-21T07:58:00.518Z,6.03
2022-09-21T08:00:32.565Z,6.13
2022-09-21T08:03:01.902Z,5.70
2022-09-21T08:05:30.008Z,5.93
2022-09-21T08:07:58.284Z,5.67
2022-09-21T08:10:28.694Z,5.93
2022-09-21T08:12:57.450Z,4.77
2022-09-21T08:15:47.392Z,5.00
2022-09-21T08:18:14.707Z,5.60
2022-09-21T08:20:42.705Z,4.73
2022-09-21T08:23:12.394Z,5.03
2022-09-21T08:25:40.263Z,4.93
2022-09-21T08:28:10.002Z,4.70
2022-09-21T08:30:38.269Z,4.73
2022-09-21T08:33:06.993Z,4.50
2022-09-21T08:35:36.964Z,4.10
2022-09-21T08:38:04.938Z,4.37
2022-09-21T08:40:34.057Z,4.40
2022-09-21T08:43:05.453Z,4.63
2022-09-21T08:45:36.229Z,4.17
2022-09-21T08:48:08.230Z,4.43
2022-09-21T08:50:42.490Z,4.07
2022-09-21T08:53:16.922Z,3.80
2022-09-21T08:55:44.802Z,4.07
2022-09-21T08:58:23.950Z,4.03
2022-09-21T09:01:07.334Z,3.70
2022-09-21T09:04:24.068Z,3.60
2022-09-21T09:07:02.353Z,4.27
2022-09-21T09:09:55.893Z,3.70
2022-09-21T09:12:39.851Z,3.50
2022-09-21T09:15:28.097Z,3.23
2022-09-21T09:18:01.239Z,2.83
2022-09-21T09:20:32.342Z,3.30
2022-09-21T09:23:10.494Z,3.07
2022-09-21T09:25:40.484Z,3.10
2022-09-21T09:28:22.996Z,2.07
2022-09-21T09:30:57.973Z,2.70
2022-09-21T09:33:29.050Z,2.60
2022-09-21T09:36:02.693Z,1.30
2022-09-21T09:38:38.144Z,1.40
2022-09-21T09:41:42.688Z,1.80
2022-09-21T09:44:24.276Z,1.40
2022-09-21T09:47:01.771Z,1.90
2022-09-21T09:49:39.754Z,1.30
2022-09-21T09:52:12.021Z,1.20
2022-09-21T09:54:41.625Z,1.00
2022-09-21T09:57:11.948Z,0.97
2022-09-21T09:59:44.233Z,1.00
2022-09-21T10:02:21.464Z,1.23
2022-09-21T10:05:03.689Z,1.07
2022-09-21T10:07:36.825Z,0.90
2022-09-21T10:10:25.176Z,1.00
2022-09-21T10:12:54.233Z,1.03
2022-09-21T10:15:25.618Z,0.90
2022-09-21T10:18:05.202Z,0.90
2022-09-21T10:20:33.985Z,0.80
2022-09-21T10:23:03.314Z,0.90
2022-09-21T10:25:35.749Z,0.90
2022-09-21T10:28:06.634Z,0.90
2022-09-21T10:30:38.617Z,0.90
2022-09-21T10:33:20.787Z,0.80
2022-09-21T10:35:53.634Z,0.97
2022-09-21T10:38:27.272Z,0.93
2022-09-21T10:40:56.749Z,1.40
2022-09-21T10:43:27.308Z,1.90
2022-09-21T10:45:57.367Z,1.50
2022-09-21T10:48:27.957Z,1.70
2022-09-21T10:50:57.877Z,1.70
2022-09-21T10:53:29.282Z,2.27
2022-09-21T10:56:18.381Z,1.80
2022-09-21T10:59:11.584Z,2.07
2022-09-21T11:01:45.512Z,1.90
2022-09-21T11:04:17.425Z,1.60
2022-09-21T11:06:48.131Z,2.00
2022-09-21T11:09:21.790Z,1.73
2022-09-21T11:11:58.646Z,1.77
2022-09-21T11:14:38.476Z,1.60
2022-09-21T11:17:13.210Z,1.70
2022-09-21T11:19:49.368Z,1.60
2022-09-21T11:22:24.899Z,1.57
2022-09-21T11:25:00.984Z,1.50
2022-09-21T11:27:36.201Z,1.50
2022-09-21T11:30:11.180Z,1.47
2022-09-21T11:32:58.147Z,1.50
2022-09-21T11:35:36.828Z,1.17
2022-09-21T11:38:11.485Z,1.50
2022-09-21T11:40:53.153Z,1.10
2022-09-21T11:43:36.803Z,1.20
2022-09-21T11:46:16.300Z,1.10
2022-09-21T11:48:59.981Z,1.40
2022-09-21T11:51:42.968Z,1.10
2022-09-21T11:54:39.221Z,1.13
2022-09-21T11:57:18.799Z,1.20
2022-09-21T12:00:00.737Z,0.70
2022-09-21T12:03:08.833Z,1.00
2022-09-21T12:05:42.702Z,0.90
2022-09-21T12:08:49.438Z,1.00
2022-09-21T12:11:29.710Z,0.90
2022-09-21T12:14:07.821Z,1.03
2022-09-21T12:16:43.032Z,0.77
2022-09-21T12:19:19.381Z,1.10
2022-09-21T12:21:50.524Z,0.70
2022-09-21T12:24:22.894Z,1.00
2022-09-21T12:26:55.638Z,0.93
2022-09-21T12:29:28.034Z,0.90
2022-09-21T12:32:05.755Z,1.10
2022-09-21T12:34:41.971Z,0.87
2022-09-21T12:37:14.265Z,0.93
2022-09-21T12:39:49.938Z,0.73
2022-09-21T12:42:29.457Z,0.80
2022-09-21T12:45:03.700Z,0.80
2022-09-21T12:47:44.810Z,1.37
2022-09-21T12:50:21.116Z,0.80
2022-09-21T12:52:51.146Z,1.00
2022-09-21T12:55:32.453Z,0.90
2022-09-21T12:58:16.099Z,0.90
2022-09-21T13:00:50.979Z,0.83
2022-09-21T13:03:26.849Z,0.87
2022-09-21T13:06:12.479Z,0.70
2022-09-21T13:08:44.068Z,0.80
2022-09-21T13:11:12.777Z,0.80
2022-09-21T13:13:52.790Z,0.90
2022-09-21T13:16:27.499Z,0.80
2022-09-21T13:19:00.023Z,0.70
2022-09-21T13:21:30.873Z,0.97
2022-09-21T13:24:01.318Z,0.80
2022-09-21T13:26:34.603Z,1.17
2022-09-21T13:29:22.547Z,0.80
2022-09-21T13:31:57.670Z,0.83
2022-09-21T13:34:30.810Z,0.80
2022-09-21T13:37:35.631Z,1.20
2022-09-21T13:40:41.009Z,1.03
2022-09-21T13:43:47.173Z,0.90
2022-09-21T13:46:48.409Z,1.10
2022-09-21T13:49:21.725Z,0.93
2022-09-21T13:52:00.033Z,1.00
2022-09-21T13:54:31.870Z,0.87
2022-09-21T13:57:09.681Z,1.00
2022-09-21T13:59:41.069Z,0.90
2022-09-21T14:02:31.614Z,0.83
2022-09-21T14:05:05.976Z,1.00
2022-09-21T14:07:36.201Z,0.93
2022-09-21T14:10:06.915Z,0.80
2022-09-21T14:12:40.119Z,0.90
2022-09-21T14:15:37.075Z,0.90
2022-09-21T14:18:46.410Z,0.87
2022-09-21T14:21:19.292Z,0.83
2022-09-21T14:24:35.857Z,0.90
2022-09-21T14:27:14.320Z,0.80
2022-09-21T14:29:46.940Z,0.80
2022-09-21T14:32:23.387Z,0.87
2022-09-21T14:34:56.414Z,0.87
2022-09-21T14:37:43.879Z,1.20
2022-09-21T14:40:21.567Z,1.47
2022-09-21T14:42:50.294Z,0.90
2022-09-21T14:45:20.572Z,1.10
2022-09-21T14:48:02.619Z,1.40
2022-09-21T14:50:34.947Z,0.90
2022-09-21T14:53:35.435Z,1.00
2022-09-21T14:56:25.541Z,1.00
2022-09-21T14:59:16.371Z,0.97
2022-09-21T15:01:58.153Z,0.90
2022-09-21T15:04:45.932Z,1.40
2022-09-21T15:07:43.563Z,0.80
2022-09-21T15:10:39.740Z,1.10
2022-09-21T15:13:19.708Z,0.87
2022-09-21T15:16:01.067Z,0.90
2022-09-21T15:18:30.625Z,1.43
2022-09-21T15:21:01.653Z,1.10
2022-09-21T15:23:32.880Z,1.20
2022-09-21T15:26:03.870Z,0.90
2022-09-21T15:29:04.932Z,0.80
2022-09-21T15:31:33.488Z,0.90
2022-09-21T15:34:02.690Z,1.10
2022-09-21T15:36:31.345Z,1.00
2022-09-21T15:39:00.376Z,1.00
2022-09-21T15:41:44.868Z,1.27
2022-09-21T15:44:19.031Z,1.07
2022-09-21T15:46:50.416Z,1.17
2022-09-21T15:49:22.054Z,0.70
2022-09-21T15:51:54.041Z,1.00
2022-09-21T15:54:35.471Z,0.77
2022-09-21T15:57:08.553Z,1.23
2022-09-21T15:59:38.295Z,2.03
2022-09-21T16:02:17.283Z,1.30
2022-09-21T16:04:50.005Z,0.90
2022-09-21T16:07:31.238Z,1.00
2022-09-21T16:09:59.328Z,0.90
2022-09-21T16:12:44.121Z,1.00
2022-09-21T16:15:28.278Z,1.07
2022-09-21T16:18:01.360Z,0.77
2022-09-21T16:20:44.547Z,1.07
2022-09-21T16:23:18.111Z,0.87
2022-09-21T16:25:53.604Z,0.90
2022-09-21T16:28:36.441Z,0.90
2022-09-21T16:31:24.734Z,1.00
2022-09-21T16:34:07.364Z,1.30
2022-09-21T16:36:42.898Z,1.33
2022-09-21T16:39:15.487Z,1.20
2022-09-21T16:41:48.266Z,1.20
2022-09-21T16:44:20.779Z,1.30
2022-09-21T16:46:54.468Z,1.13
2022-09-21T16:49:26.819Z,1.20
2022-09-21T16:51:57.621Z,1.10
2022-09-21T16:54:27.091Z,1.30
2022-09-21T16:56:57.287Z,1.40
2022-09-21T16:59:26.202Z,1.60
2022-09-21T17:01:57.394Z,1.40
2022-09-21T17:04:26.747Z,1.07
2022-09-21T17:06:55.294Z,1.17
2022-09-21T17:09:29.464Z,1.20
2022-09-21T17:11:59.329Z,1.40
2022-09-21T17:14:27.348Z,1.03
2022-09-21T17:16:58.978Z,1.20
2022-09-21T17:19:27.025Z,1.30
2022-09-21T17:21:54.898Z,1.07
2022-09-21T17:24:45.810Z,1.20
2022-09-21T17:27:11.001Z,1.20
2022-09-21T17:29:40.981Z,1.23
2022-09-21T17:32:12.021Z,1.30
2022-09-21T17:34:41.243Z,1.03
2022-09-21T17:37:10.288Z,1.60
2022-09-21T17:39:38.165Z,1.90
2022-09-21T17:42:17.300Z,2.10
2022-09-21T17:44:55.169Z,1.60
2022-09-21T17:47:28.089Z,1.50
2022-09-21T17:50:06.685Z,1.80
2022-09-21T17:52:52.700Z,1.50
2022-09-21T17:55:21.111Z,1.40
2022-09-21T17:58:02.303Z,1.60
2022-09-21T18:00:38.838Z,1.60
2022-09-21T18:03:21.741Z,1.83
2022-09-21T18:05:52.943Z,1.20
2022-09-21T18:08:21.482Z,1.33
2022-09-21T18:10:58.305Z,1.70
2022-09-21T18:13:35.056Z,2.03
2022-09-21T18:16:19.767Z,1.57
2022-09-21T18:18:56.600Z,1.23
2022-09-21T18:21:25.759Z,1.77
2022-09-21T18:24:13.602Z,3.80
2022-09-21T18:26:42.512Z,10.50
2022-09-21T18:29:38.976Z,9.33
2022-09-21T18:32:39.588Z,3.20
2022-09-21T18:35:28.695Z,1.53
2022-09-21T18:38:16.305Z,1.77
2022-09-21T18:41:00.421Z,1.60
2022-09-21T18:43:41.251Z,1.30
2022-09-21T18:46:14.883Z,2.80
2022-09-21T18:48:57.452Z,1.60
2022-09-21T18:51:33.030Z,1.93
2022-09-21T18:54:01.547Z,3.97
2022-09-21T18:56:35.348Z,5.20
2022-09-21T18:59:06.333Z,4.10
2022-09-21T19:01:35.177Z,1.90
2022-09-21T19:04:04.150Z,1.20
2022-09-21T19:06:54.192Z,1.30
2022-09-21T19:09:38.901Z,1.33
2022-09-21T19:12:18.620Z,1.23
2022-09-21T19:14:58.980Z,1.33
2022-09-21T19:17:42.125Z,1.50
2022-09-21T19:20:27.845Z,1.30
2022-09-21T19:23:06.056Z,1.10
2022-09-21T19:25:42.219Z,1.60
2022-09-21T19:28:42.522Z,1.50
2022-09-21T19:31:14.296Z,1.50
2022-09-21T19:33:50.393Z,1.30
2022-09-21T19:36:19.750Z,1.40
2022-09-21T19:38:49.506Z,1.60
2022-09-21T19:41:35.895Z,1.70
2022-09-21T19:44:15.287Z,1.70
2022-09-21T19:46:54.692Z,1.60
2022-09-21T19:49:26.177Z,1.53
2022-09-21T19:51:56.299Z,1.27
2022-09-21T19:54:44.980Z,1.47
2022-09-21T19:57:32.907Z,1.30
2022-09-21T20:00:01.900Z,1.40
2022-09-21T20:02:37.164Z,2.20
2022-09-21T20:05:10.334Z,1.50
2022-09-21T20:07:45.158Z,1.50
2022-09-21T20:10:43.206Z,1.60
2022-09-21T20:13:28.068Z,1.30
2022-09-21T20:16:04.056Z,1.63
2022-09-21T20:18:40.297Z,1.33
2022-09-21T20:21:13.479Z,1.60
2022-09-21T20:23:43.698Z,1.40
2022-09-21T20:26:23.796Z,2.43
2022-09-21T20:28:52.931Z,1.60
2022-09-21T20:31:21.471Z,1.57
2022-09-21T20:33:50.411Z,1.70
2022-09-21T20:36:18.466Z,1.70
2022-09-21T20:38:46.522Z,1.80
2022-09-21T20:41:20.203Z,2.00
2022-09-21T20:43:48.258Z,1.60
2022-09-21T20:46:16.985Z,1.70
2022-09-21T20:48:45.894Z,1.97
2022-09-21T20:51:14.013Z,1.70
2022-09-21T20:53:42.468Z,1.67
2022-09-21T20:56:12.959Z,1.80
2022-09-21T20:58:42.149Z,1.70
2022-09-21T21:01:10.716Z,2.00
2022-09-21T21:03:38.656Z,2.10
2022-09-21T21:06:11.555Z,2.00
2022-09-21T21:08:39.503Z,1.60
2022-09-21T21:11:07.705Z,2.23
2022-09-21T21:13:35.798Z,2.00
2022-09-21T21:16:11.083Z,1.90
2022-09-21T21:18:41.033Z,1.77
2022-09-21T21:21:09.329Z,1.80
2022-09-21T21:23:57.576Z,1.60
2022-09-21T21:26:43.975Z,2.07
2022-09-21T21:29:13.560Z,1.90
2022-09-21T21:31:43.151Z,2.00
2022-09-21T21:34:11.437Z,1.90
2022-09-21T21:36:39.876Z,1.90
2022-09-21T21:39:08.290Z,1.67
2022-09-21T21:41:36.399Z,1.80
2022-09-21T21:44:04.448Z,1.97
2022-09-21T21:46:32.381Z,1.90
2022-09-21T21:49:01.689Z,1.73
2022-09-21T21:51:30.006Z,1.90
2022-09-21T21:53:57.865Z,2.23
2022-09-21T21:56:26.528Z,1.70
2022-09-21T21:58:55.999Z,1.80
2022-09-21T22:01:26.368Z,2.10
2022-09-21T22:03:55.944Z,1.70
2022-09-21T22:06:25.788Z,1.97
2022-09-21T22:08:55.364Z,1.90
2022-09-21T22:11:25.016Z,2.17
2022-09-21T22:13:54.912Z,1.80
2022-09-21T22:16:24.977Z,1.70
2022-09-21T22:18:53.894Z,2.03
2022-09-21T22:21:23.415Z,1.93
2022-09-21T22:23:55.093Z,1.70
2022-09-21T22:26:23.913Z,2.00
2022-09-21T22:28:54.382Z,2.00
2022-09-21T22:31:26.415Z,2.00
2022-09-21T22:33:55.745Z,1.90
2022-09-21T22:36:25.833Z,2.23
2022-09-21T22:38:56.292Z,2.00
2022-09-21T22:41:25.868Z,2.20
2022-09-21T22:43:55.509Z,2.67
2022-09-21T22:46:24.797Z,2.70
2022-09-21T22:48:53.062Z,2.43
2022-09-21T22:51:22.187Z,2.50
2022-09-21T22:53:51.549Z,2.30
2022-09-21T22:56:22.873Z,2.00
2022-09-21T22:58:53.136Z,1.90
2022-09-21T23:01:24.914Z,2.00
2022-09-21T23:03:54.988Z,2.10
2022-09-21T23:06:26.385Z,2.07
2022-09-21T23:08:57.154Z,2.27
2022-09-21T23:11:28.757Z,2.17
2022-09-21T23:13:57.613Z,2.27
2022-09-21T23:16:27.224Z,2.10
2022-09-21T23:18:59.217Z,2.10
2022-09-21T23:21:29.402Z,2.30
2022-09-21T23:23:59.758Z,1.90
2022-09-21T23:26:30.663Z,2.10
2022-09-21T23:29:00.454Z,2.50
2022-09-21T23:31:29.389Z,1.97
2022-09-21T23:33:58.882Z,2.20
2022-09-21T23:36:28.764Z,1.90
2022-09-21T23:38:56.808Z,2.40
2022-09-21T23:41:26.336Z,2.10
2022-09-21T23:43:56.258Z,2.27
2022-09-21T23:46:26.028Z,2.40
2022-09-21T23:48:54.315Z,2.30
2022-09-21T23:51:22.712Z,2.13
2022-09-21T23:53:51.091Z,2.30
2022-09-21T23:56:21.338Z,2.30
2022-09-21T23:58:50.258Z,2.20
